sensor_id;sensor_type;location;lat;lon;timestamp;temperature;humidity
25825;DHT22;13658;44.534;18.694;2023-04-15T00:01:50;7.30;99.90
25825;DHT22;13658;44.534;18.694;2023-04-15T00:04:17;7.40;99.90
25825;DHT22;13658;44.534;18.694;2023-04-15T00:06:52;7.30;99.90
25825;DHT22;13658;44.534;18.694;2023-04-15T00:09:19;7.30;99.90
25825;DHT22;13658;44.534;18.694;2023-04-15T00:11:45;7.20;99.90
25825;DHT22;13658;44.534;18.694;2023-04-15T00:14:14;7.10;99.90
25825;DHT22;13658;44.534;18.694;2023-04-15T00:16:40;7.20;99.90
25825;DHT22;13658;44.534;18.694;2023-04-15T00:19:06;7.30;99.90
25825;DHT22;13658;44.534;18.694;2023-04-15T00:21:32;7.20;99.90
25825;DHT22;13658;44.534;18.694;2023-04-15T00:23:58;7.10;99.90
25825;DHT22;13658;44.534;18.694;2023-04-15T00:26:24;7.10;99.90
25825;DHT22;13658;44.534;18.694;2023-04-15T00:28:50;7.10;99.90
25825;DHT22;13658;44.534;18.694;2023-04-15T00:31:16;7.00;99.90
25825;DHT22;13658;44.534;18.694;2023-04-15T00:33:42;6.90;99.90
25825;DHT22;13658;44.534;18.694;2023-04-15T00:36:08;6.80;99.90
25825;DHT22;13658;44.534;18.694;2023-04-15T00:38:37;6.80;99.90
25825;DHT22;13658;44.534;18.694;2023-04-15T00:41:04;6.70;99.90
25825;DHT22;13658;44.534;18.694;2023-04-15T00:43:30;6.70;99.90
25825;DHT22;13658;44.534;18.694;2023-04-15T00:45:58;6.60;99.90
25825;DHT22;13658;44.534;18.694;2023-04-15T00:48:25;6.50;99.90
25825;DHT22;13658;44.534;18.694;2023-04-15T00:50:51;6.40;99.90
25825;DHT22;13658;44.534;18.694;2023-04-15T00:53:20;6.40;99.90
25825;DHT22;13658;44.534;18.694;2023-04-15T00:55:46;6.40;99.90
25825;DHT22;13658;44.534;18.694;2023-04-15T00:58:12;6.40;99.90
25825;DHT22;13658;44.534;18.694;2023-04-15T01:00:38;6.40;99.90
25825;DHT22;13658;44.534;18.694;2023-04-15T01:03:05;6.40;99.90
25825;DHT22;13658;44.534;18.694;2023-04-15T01:05:31;6.40;99.90
25825;DHT22;13658;44.534;18.694;2023-04-15T01:07:58;6.30;99.90
25825;DHT22;13658;44.534;18.694;2023-04-15T01:10:24;6.30;99.90
25825;DHT22;13658;44.534;18.694;2023-04-15T01:12:50;6.20;99.90
25825;DHT22;13658;44.534;18.694;2023-04-15T01:15:17;6.00;99.90
25825;DHT22;13658;44.534;18.694;2023-04-15T01:17:43;6.00;99.90
25825;DHT22;13658;44.534;18.694;2023-04-15T01:20:09;5.90;99.90
25825;DHT22;13658;44.534;18.694;2023-04-15T01:22:37;6.00;99.90
25825;DHT22;13658;44.534;18.694;2023-04-15T01:25:12;6.00;99.90
25825;DHT22;13658;44.534;18.694;2023-04-15T01:27:41;6.00;99.90
25825;DHT22;13658;44.534;18.694;2023-04-15T01:30:09;6.00;99.90
25825;DHT22;13658;44.534;18.694;2023-04-15T01:32:35;6.00;99.90
25825;DHT22;13658;44.534;18.694;2023-04-15T01:35:01;6.10;99.90
25825;DHT22;13658;44.534;18.694;2023-04-15T01:37:28;6.10;99.90
25825;DHT22;13658;44.534;18.694;2023-04-15T01:39:54;6.00;99.90
25825;DHT22;13658;44.534;18.694;2023-04-15T01:42:21;6.00;99.90
25825;DHT22;13658;44.534;18.694;2023-04-15T01:44:48;6.00;99.90
25825;DHT22;13658;44.534;18.694;2023-04-15T01:47:14;5.90;99.90
25825;DHT22;13658;44.534;18.694;2023-04-15T01:49:40;5.80;99.90
25825;DHT22;13658;44.534;18.694;2023-04-15T01:52:06;5.80;99.90
25825;DHT22;13658;44.534;18.694;2023-04-15T01:54:32;5.70;99.90
25825;DHT22;13658;44.534;18.694;2023-04-15T01:56:58;5.70;99.90
25825;DHT22;13658;44.534;18.694;2023-04-15T01:59:24;5.60;99.90
25825;DHT22;13658;44.534;18.694;2023-04-15T02:01:51;5.60;99.90
25825;DHT22;13658;44.534;18.694;2023-04-15T02:04:17;5.60;99.90
25825;DHT22;13658;44.534;18.694;2023-04-15T02:06:43;5.50;99.90
25825;DHT22;13658;44.534;18.694;2023-04-15T02:09:09;5.50;99.90
25825;DHT22;13658;44.534;18.694;2023-04-15T02:11:36;5.50;99.90
25825;DHT22;13658;44.534;18.694;2023-04-15T02:14:03;5.40;99.90
25825;DHT22;13658;44.534;18.694;2023-04-15T02:16:31;5.40;99.90
25825;DHT22;13658;44.534;18.694;2023-04-15T02:19:00;5.40;99.90
25825;DHT22;13658;44.534;18.694;2023-04-15T02:21:26;5.40;99.90
25825;DHT22;13658;44.534;18.694;2023-04-15T02:23:52;5.40;99.90
25825;DHT22;13658;44.534;18.694;2023-04-15T02:26:19;5.30;99.90
25825;DHT22;13658;44.534;18.694;2023-04-15T02:28:46;5.30;99.90
25825;DHT22;13658;44.534;18.694;2023-04-15T02:31:19;5.30;99.90
25825;DHT22;13658;44.534;18.694;2023-04-15T02:33:46;5.20;99.90
25825;DHT22;13658;44.534;18.694;2023-04-15T02:36:21;5.20;99.90
25825;DHT22;13658;44.534;18.694;2023-04-15T02:38:48;5.20;99.90
25825;DHT22;13658;44.534;18.694;2023-04-15T02:41:15;5.20;99.90
25825;DHT22;13658;44.534;18.694;2023-04-15T02:43:46;5.20;99.90
25825;DHT22;13658;44.534;18.694;2023-04-15T02:46:15;5.20;99.90
25825;DHT22;13658;44.534;18.694;2023-04-15T02:52:24;5.30;99.90
25825;DHT22;13658;44.534;18.694;2023-04-15T02:54:51;5.30;99.90
25825;DHT22;13658;44.534;18.694;2023-04-15T02:57:18;5.30;99.90
25825;DHT22;13658;44.534;18.694;2023-04-15T02:59:44;5.20;99.90
25825;DHT22;13658;44.534;18.694;2023-04-15T03:02:10;5.30;99.90
25825;DHT22;13658;44.534;18.694;2023-04-15T03:04:36;5.20;99.90
25825;DHT22;13658;44.534;18.694;2023-04-15T03:07:04;5.20;99.90
25825;DHT22;13658;44.534;18.694;2023-04-15T03:09:31;5.10;99.90
25825;DHT22;13658;44.534;18.694;2023-04-15T03:11:58;5.00;99.90
25825;DHT22;13658;44.534;18.694;2023-04-15T03:14:24;4.90;99.90
25825;DHT22;13658;44.534;18.694;2023-04-15T03:16:50;4.80;99.90
25825;DHT22;13658;44.534;18.694;2023-04-15T03:19:17;4.70;99.90
25825;DHT22;13658;44.534;18.694;2023-04-15T03:21:43;4.60;99.90
25825;DHT22;13658;44.534;18.694;2023-04-15T03:24:09;4.60;99.90
25825;DHT22;13658;44.534;18.694;2023-04-15T03:26:36;4.50;99.90
25825;DHT22;13658;44.534;18.694;2023-04-15T03:29:09;4.50;99.90
25825;DHT22;13658;44.534;18.694;2023-04-15T03:31:35;4.60;99.90
25825;DHT22;13658;44.534;18.694;2023-04-15T03:34:01;4.60;99.90
25825;DHT22;13658;44.534;18.694;2023-04-15T03:36:30;4.60;99.90
25825;DHT22;13658;44.534;18.694;2023-04-15T03:38:58;4.60;99.90
25825;DHT22;13658;44.534;18.694;2023-04-15T03:41:24;4.60;99.90
25825;DHT22;13658;44.534;18.694;2023-04-15T03:43:51;4.60;99.90
25825;DHT22;13658;44.534;18.694;2023-04-15T03:46:32;4.50;99.90
25825;DHT22;13658;44.534;18.694;2023-04-15T03:48:58;4.40;99.90
25825;DHT22;13658;44.534;18.694;2023-04-15T03:51:24;4.30;99.90
25825;DHT22;13658;44.534;18.694;2023-04-15T03:53:50;4.30;99.90
25825;DHT22;13658;44.534;18.694;2023-04-15T03:56:16;4.40;99.90
25825;DHT22;13658;44.534;18.694;2023-04-15T03:58:42;4.50;99.90
25825;DHT22;13658;44.534;18.694;2023-04-15T04:01:08;4.40;99.90
25825;DHT22;13658;44.534;18.694;2023-04-15T04:03:34;4.40;99.90
25825;DHT22;13658;44.534;18.694;2023-04-15T04:06:01;4.30;99.90
25825;DHT22;13658;44.534;18.694;2023-04-15T04:08:27;4.30;99.90
25825;DHT22;13658;44.534;18.694;2023-04-15T04:10:53;4.30;99.90
25825;DHT22;13658;44.534;18.694;2023-04-15T04:13:19;4.20;99.90
25825;DHT22;13658;44.534;18.694;2023-04-15T04:15:45;4.20;99.90
25825;DHT22;13658;44.534;18.694;2023-04-15T04:18:11;4.20;99.90
25825;DHT22;13658;44.534;18.694;2023-04-15T04:20:37;4.20;99.90
25825;DHT22;13658;44.534;18.694;2023-04-15T04:23:03;4.30;99.90
25825;DHT22;13658;44.534;18.694;2023-04-15T04:25:30;4.30;99.90
25825;DHT22;13658;44.534;18.694;2023-04-15T04:27:58;4.40;99.90
25825;DHT22;13658;44.534;18.694;2023-04-15T04:30:26;4.40;99.90
25825;DHT22;13658;44.534;18.694;2023-04-15T04:32:52;4.40;99.90
25825;DHT22;13658;44.534;18.694;2023-04-15T04:35:18;4.40;99.90
25825;DHT22;13658;44.534;18.694;2023-04-15T04:37:44;4.40;99.90
25825;DHT22;13658;44.534;18.694;2023-04-15T04:40:10;4.40;99.90
25825;DHT22;13658;44.534;18.694;2023-04-15T04:42:36;4.40;99.90
25825;DHT22;13658;44.534;18.694;2023-04-15T04:45:02;4.30;99.90
25825;DHT22;13658;44.534;18.694;2023-04-15T04:47:28;4.20;99.90
25825;DHT22;13658;44.534;18.694;2023-04-15T04:49:54;4.30;99.90
25825;DHT22;13658;44.534;18.694;2023-04-15T04:52:20;4.40;99.90
25825;DHT22;13658;44.534;18.694;2023-04-15T04:54:46;4.50;99.90
25825;DHT22;13658;44.534;18.694;2023-04-15T04:57:12;4.70;99.90
25825;DHT22;13658;44.534;18.694;2023-04-15T04:59:38;4.90;99.90
25825;DHT22;13658;44.534;18.694;2023-04-15T05:02:05;5.30;99.90
25825;DHT22;13658;44.534;18.694;2023-04-15T05:04:33;5.80;99.90
25825;DHT22;13658;44.534;18.694;2023-04-15T05:06:59;6.10;99.90
25825;DHT22;13658;44.534;18.694;2023-04-15T05:09:25;6.30;99.90
25825;DHT22;13658;44.534;18.694;2023-04-15T05:11:51;6.50;99.90
25825;DHT22;13658;44.534;18.694;2023-04-15T05:14:17;6.70;99.90
25825;DHT22;13658;44.534;18.694;2023-04-15T05:16:43;6.70;99.90
25825;DHT22;13658;44.534;18.694;2023-04-15T05:19:14;6.70;99.90
25825;DHT22;13658;44.534;18.694;2023-04-15T05:21:40;6.50;99.90
25825;DHT22;13658;44.534;18.694;2023-04-15T05:24:06;6.50;99.90
25825;DHT22;13658;44.534;18.694;2023-04-15T05:26:32;6.80;99.90
25825;DHT22;13658;44.534;18.694;2023-04-15T05:28:58;6.90;99.90
25825;DHT22;13658;44.534;18.694;2023-04-15T05:31:24;7.20;99.90
25825;DHT22;13658;44.534;18.694;2023-04-15T05:33:50;7.50;99.90
25825;DHT22;13658;44.534;18.694;2023-04-15T05:36:16;7.90;99.90
25825;DHT22;13658;44.534;18.694;2023-04-15T05:38:42;8.20;99.90
25825;DHT22;13658;44.534;18.694;2023-04-15T05:41:09;8.70;99.90
25825;DHT22;13658;44.534;18.694;2023-04-15T05:43:35;9.00;99.90
25825;DHT22;13658;44.534;18.694;2023-04-15T05:46:01;9.30;99.90
25825;DHT22;13658;44.534;18.694;2023-04-15T05:48:28;9.70;99.90
25825;DHT22;13658;44.534;18.694;2023-04-15T05:50:54;10.30;99.90
25825;DHT22;13658;44.534;18.694;2023-04-15T05:53:20;10.50;99.90
25825;DHT22;13658;44.534;18.694;2023-04-15T05:55:46;11.00;99.90
25825;DHT22;13658;44.534;18.694;2023-04-15T05:58:12;11.10;99.90
25825;DHT22;13658;44.534;18.694;2023-04-15T06:00:41;11.80;99.90
25825;DHT22;13658;44.534;18.694;2023-04-15T06:03:08;12.10;99.90
25825;DHT22;13658;44.534;18.694;2023-04-15T06:05:36;12.40;99.90
25825;DHT22;13658;44.534;18.694;2023-04-15T06:08:02;13.30;99.90
25825;DHT22;13658;44.534;18.694;2023-04-15T06:10:28;13.60;99.90
25825;DHT22;13658;44.534;18.694;2023-04-15T06:12:54;14.00;99.90
25825;DHT22;13658;44.534;18.694;2023-04-15T06:15:20;14.00;99.90
25825;DHT22;13658;44.534;18.694;2023-04-15T06:17:46;14.10;99.90
25825;DHT22;13658;44.534;18.694;2023-04-15T06:20:12;14.70;99.90
25825;DHT22;13658;44.534;18.694;2023-04-15T06:22:38;14.50;99.90
25825;DHT22;13658;44.534;18.694;2023-04-15T06:25:06;14.50;99.90
25825;DHT22;13658;44.534;18.694;2023-04-15T06:27:33;14.80;99.90
25825;DHT22;13658;44.534;18.694;2023-04-15T06:29:59;14.80;99.90
25825;DHT22;13658;44.534;18.694;2023-04-15T06:32:25;15.40;99.90
25825;DHT22;13658;44.534;18.694;2023-04-15T06:34:51;15.20;99.90
25825;DHT22;13658;44.534;18.694;2023-04-15T06:37:17;15.50;99.90
25825;DHT22;13658;44.534;18.694;2023-04-15T06:39:43;15.40;99.90
25825;DHT22;13658;44.534;18.694;2023-04-15T06:42:10;15.30;99.90
25825;DHT22;13658;44.534;18.694;2023-04-15T06:44:36;15.70;99.90
25825;DHT22;13658;44.534;18.694;2023-04-15T06:47:03;16.10;99.90
25825;DHT22;13658;44.534;18.694;2023-04-15T06:49:29;16.30;99.90
25825;DHT22;13658;44.534;18.694;2023-04-15T06:51:55;16.80;99.90
25825;DHT22;13658;44.534;18.694;2023-04-15T06:54:21;17.30;99.90
25825;DHT22;13658;44.534;18.694;2023-04-15T06:56:47;17.80;99.90
25825;DHT22;13658;44.534;18.694;2023-04-15T06:59:13;18.30;99.90
25825;DHT22;13658;44.534;18.694;2023-04-15T07:01:42;18.70;99.90
25825;DHT22;13658;44.534;18.694;2023-04-15T07:04:08;19.50;99.90
25825;DHT22;13658;44.534;18.694;2023-04-15T07:06:35;19.70;99.90
25825;DHT22;13658;44.534;18.694;2023-04-15T07:09:02;18.10;99.90
25825;DHT22;13658;44.534;18.694;2023-04-15T07:11:29;17.20;99.90
25825;DHT22;13658;44.534;18.694;2023-04-15T07:13:57;16.70;99.90
25825;DHT22;13658;44.534;18.694;2023-04-15T07:16:23;16.70;99.90
25825;DHT22;13658;44.534;18.694;2023-04-15T07:18:49;16.60;99.90
25825;DHT22;13658;44.534;18.694;2023-04-15T07:21:15;16.30;99.90
25825;DHT22;13658;44.534;18.694;2023-04-15T07:23:41;16.50;99.90
25825;DHT22;13658;44.534;18.694;2023-04-15T07:26:08;17.50;99.90
25825;DHT22;13658;44.534;18.694;2023-04-15T07:28:34;18.00;99.90
25825;DHT22;13658;44.534;18.694;2023-04-15T07:31:00;18.30;99.90
25825;DHT22;13658;44.534;18.694;2023-04-15T07:33:26;18.20;99.90
25825;DHT22;13658;44.534;18.694;2023-04-15T07:35:52;18.00;99.90
25825;DHT22;13658;44.534;18.694;2023-04-15T07:38:18;17.80;99.90
25825;DHT22;13658;44.534;18.694;2023-04-15T07:40:45;17.60;99.90
25825;DHT22;13658;44.534;18.694;2023-04-15T07:43:11;17.50;99.90
25825;DHT22;13658;44.534;18.694;2023-04-15T07:45:38;17.10;99.90
25825;DHT22;13658;44.534;18.694;2023-04-15T07:48:04;17.30;99.90
25825;DHT22;13658;44.534;18.694;2023-04-15T07:50:31;17.20;99.90
25825;DHT22;13658;44.534;18.694;2023-04-15T07:52:57;17.30;99.90
25825;DHT22;13658;44.534;18.694;2023-04-15T07:55:23;17.30;99.90
25825;DHT22;13658;44.534;18.694;2023-04-15T07:57:49;17.10;99.90
25825;DHT22;13658;44.534;18.694;2023-04-15T08:00:16;17.10;99.90
25825;DHT22;13658;44.534;18.694;2023-04-15T08:02:42;17.30;99.90
25825;DHT22;13658;44.534;18.694;2023-04-15T08:05:09;18.40;99.90
25825;DHT22;13658;44.534;18.694;2023-04-15T08:07:36;19.50;99.90
25825;DHT22;13658;44.534;18.694;2023-04-15T08:10:03;19.80;99.90
25825;DHT22;13658;44.534;18.694;2023-04-15T08:12:29;20.10;99.90
25825;DHT22;13658;44.534;18.694;2023-04-15T08:14:56;20.30;99.90
25825;DHT22;13658;44.534;18.694;2023-04-15T08:17:23;20.60;99.90
25825;DHT22;13658;44.534;18.694;2023-04-15T08:19:48;21.10;99.90
25825;DHT22;13658;44.534;18.694;2023-04-15T08:22:15;21.70;99.90
25825;DHT22;13658;44.534;18.694;2023-04-15T08:24:41;21.70;99.90
25825;DHT22;13658;44.534;18.694;2023-04-15T08:27:07;22.90;99.90
25825;DHT22;13658;44.534;18.694;2023-04-15T08:29:34;24.00;99.90
25825;DHT22;13658;44.534;18.694;2023-04-15T08:32:00;24.40;99.90
25825;DHT22;13658;44.534;18.694;2023-04-15T08:34:27;24.30;99.90
25825;DHT22;13658;44.534;18.694;2023-04-15T08:36:53;25.90;99.90
25825;DHT22;13658;44.534;18.694;2023-04-15T08:39:19;26.00;99.90
25825;DHT22;13658;44.534;18.694;2023-04-15T08:41:46;25.80;99.90
25825;DHT22;13658;44.534;18.694;2023-04-15T08:44:13;25.60;99.90
25825;DHT22;13658;44.534;18.694;2023-04-15T08:46:40;25.20;99.90
25825;DHT22;13658;44.534;18.694;2023-04-15T08:49:11;25.20;99.90
25825;DHT22;13658;44.534;18.694;2023-04-15T08:51:41;27.20;99.90
25825;DHT22;13658;44.534;18.694;2023-04-15T08:54:10;27.20;99.90
25825;DHT22;13658;44.534;18.694;2023-04-15T08:56:38;26.50;99.90
25825;DHT22;13658;44.534;18.694;2023-04-15T08:59:04;26.40;99.90
25825;DHT22;13658;44.534;18.694;2023-04-15T09:01:31;26.00;99.90
25825;DHT22;13658;44.534;18.694;2023-04-15T09:03:58;25.40;99.90
25825;DHT22;13658;44.534;18.694;2023-04-15T09:06:25;25.00;99.90
25825;DHT22;13658;44.534;18.694;2023-04-15T09:08:51;23.20;99.90
25825;DHT22;13658;44.534;18.694;2023-04-15T09:11:18;22.70;99.90
25825;DHT22;13658;44.534;18.694;2023-04-15T09:13:44;21.80;99.90
25825;DHT22;13658;44.534;18.694;2023-04-15T09:16:12;21.70;99.90
25825;DHT22;13658;44.534;18.694;2023-04-15T09:18:38;21.90;99.90
25825;DHT22;13658;44.534;18.694;2023-04-15T09:21:05;21.50;99.90
25825;DHT22;13658;44.534;18.694;2023-04-15T09:23:34;21.10;99.90
25825;DHT22;13658;44.534;18.694;2023-04-15T09:26:01;21.60;99.90
25825;DHT22;13658;44.534;18.694;2023-04-15T09:28:28;21.80;99.90
25825;DHT22;13658;44.534;18.694;2023-04-15T09:30:58;22.80;99.90
25825;DHT22;13658;44.534;18.694;2023-04-15T09:33:25;23.90;99.90
25825;DHT22;13658;44.534;18.694;2023-04-15T09:35:57;24.30;99.90
25825;DHT22;13658;44.534;18.694;2023-04-15T09:38:23;24.40;99.90
25825;DHT22;13658;44.534;18.694;2023-04-15T09:40:49;24.10;99.90
25825;DHT22;13658;44.534;18.694;2023-04-15T09:43:15;24.70;99.90
25825;DHT22;13658;44.534;18.694;2023-04-15T09:45:52;26.10;99.90
25825;DHT22;13658;44.534;18.694;2023-04-15T09:48:20;26.10;99.90
25825;DHT22;13658;44.534;18.694;2023-04-15T09:50:48;26.20;99.90
25825;DHT22;13658;44.534;18.694;2023-04-15T09:53:19;25.90;99.90
25825;DHT22;13658;44.534;18.694;2023-04-15T09:55:49;26.10;99.90
25825;DHT22;13658;44.534;18.694;2023-04-15T09:58:24;26.80;99.90
25825;DHT22;13658;44.534;18.694;2023-04-15T10:00:52;26.80;99.90
25825;DHT22;13658;44.534;18.694;2023-04-15T10:03:20;24.80;99.90
25825;DHT22;13658;44.534;18.694;2023-04-15T10:05:47;24.00;99.90
25825;DHT22;13658;44.534;18.694;2023-04-15T10:08:19;24.10;99.90
25825;DHT22;13658;44.534;18.694;2023-04-15T10:10:47;23.40;99.90
25825;DHT22;13658;44.534;18.694;2023-04-15T10:13:18;23.70;99.90
25825;DHT22;13658;44.534;18.694;2023-04-15T10:15:50;24.40;99.90
25825;DHT22;13658;44.534;18.694;2023-04-15T10:18:19;24.50;99.90
25825;DHT22;13658;44.534;18.694;2023-04-15T10:20:47;24.10;99.90
25825;DHT22;13658;44.534;18.694;2023-04-15T10:23:14;25.10;99.90
25825;DHT22;13658;44.534;18.694;2023-04-15T10:25:51;25.10;99.90
25825;DHT22;13658;44.534;18.694;2023-04-15T10:28:19;25.20;99.90
25825;DHT22;13658;44.534;18.694;2023-04-15T10:30:48;25.40;99.90
25825;DHT22;13658;44.534;18.694;2023-04-15T10:33:20;25.30;99.90
25825;DHT22;13658;44.534;18.694;2023-04-15T10:35:47;25.80;99.90
25825;DHT22;13658;44.534;18.694;2023-04-15T10:41:23;26.50;99.90
25825;DHT22;13658;44.534;18.694;2023-04-15T10:46:40;25.00;99.90
25825;DHT22;13658;44.534;18.694;2023-04-15T10:49:16;25.60;99.90
25825;DHT22;13658;44.534;18.694;2023-04-15T10:51:56;25.20;99.90
25825;DHT22;13658;44.534;18.694;2023-04-15T10:57:08;23.10;99.90
25825;DHT22;13658;44.534;18.694;2023-04-15T11:05:06;20.00;99.90
25825;DHT22;13658;44.534;18.694;2023-04-15T11:07:33;19.40;99.90
25825;DHT22;13658;44.534;18.694;2023-04-15T11:10:00;19.10;99.90
25825;DHT22;13658;44.534;18.694;2023-04-15T11:12:34;18.70;99.90
25825;DHT22;13658;44.534;18.694;2023-04-15T11:15:29;18.70;99.90
25825;DHT22;13658;44.534;18.694;2023-04-15T11:20:25;18.20;99.90
25825;DHT22;13658;44.534;18.694;2023-04-15T11:22:55;18.50;99.90
25825;DHT22;13658;44.534;18.694;2023-04-15T11:25:29;18.20;99.90
25825;DHT22;13658;44.534;18.694;2023-04-15T11:27:55;18.20;99.90
25825;DHT22;13658;44.534;18.694;2023-04-15T11:30:24;18.50;99.90
25825;DHT22;13658;44.534;18.694;2023-04-15T11:32:52;18.30;99.90
25825;DHT22;13658;44.534;18.694;2023-04-15T11:35:18;18.50;99.90
25825;DHT22;13658;44.534;18.694;2023-04-15T11:37:45;18.60;99.90
25825;DHT22;13658;44.534;18.694;2023-04-15T11:40:12;18.30;99.90
25825;DHT22;13658;44.534;18.694;2023-04-15T11:42:40;18.40;99.90
25825;DHT22;13658;44.534;18.694;2023-04-15T11:45:14;18.50;99.90
25825;DHT22;13658;44.534;18.694;2023-04-15T11:47:43;18.60;99.90
25825;DHT22;13658;44.534;18.694;2023-04-15T11:50:20;18.50;99.90
25825;DHT22;13658;44.534;18.694;2023-04-15T11:52:57;18.70;99.90
25825;DHT22;13658;44.534;18.694;2023-04-15T11:55:24;18.70;99.90
25825;DHT22;13658;44.534;18.694;2023-04-15T11:58:10;18.40;99.90
25825;DHT22;13658;44.534;18.694;2023-04-15T12:00:37;18.40;99.90
25825;DHT22;13658;44.534;18.694;2023-04-15T12:08:59;18.10;99.90
25825;DHT22;13658;44.534;18.694;2023-04-15T12:16:23;17.50;99.90
25825;DHT22;13658;44.534;18.694;2023-04-15T12:18:54;17.10;99.90
25825;DHT22;13658;44.534;18.694;2023-04-15T12:21:22;17.10;99.90
25825;DHT22;13658;44.534;18.694;2023-04-15T12:23:53;17.10;99.90
25825;DHT22;13658;44.534;18.694;2023-04-15T12:27:00;16.90;99.90
25825;DHT22;13658;44.534;18.694;2023-04-15T12:29:19;16.80;99.90
25825;DHT22;13658;44.534;18.694;2023-04-15T12:31:56;16.60;99.90
25825;DHT22;13658;44.534;18.694;2023-04-15T12:34:33;16.70;99.90
25825;DHT22;13658;44.534;18.694;2023-04-15T12:37:03;16.40;99.90
25825;DHT22;13658;44.534;18.694;2023-04-15T12:39:30;16.30;99.90
25825;DHT22;13658;44.534;18.694;2023-04-15T12:41:58;16.30;99.90
25825;DHT22;13658;44.534;18.694;2023-04-15T12:44:25;16.40;99.90
25825;DHT22;13658;44.534;18.694;2023-04-15T12:46:51;16.50;99.90
25825;DHT22;13658;44.534;18.694;2023-04-15T12:49:19;16.60;99.90
25825;DHT22;13658;44.534;18.694;2023-04-15T12:51:48;16.70;99.90
25825;DHT22;13658;44.534;18.694;2023-04-15T12:54:15;16.70;99.90
25825;DHT22;13658;44.534;18.694;2023-04-15T12:56:42;16.90;99.90
25825;DHT22;13658;44.534;18.694;2023-04-15T12:59:08;17.20;99.90
25825;DHT22;13658;44.534;18.694;2023-04-15T13:01:34;17.20;99.90
25825;DHT22;13658;44.534;18.694;2023-04-15T13:04:00;17.00;99.90
25825;DHT22;13658;44.534;18.694;2023-04-15T13:06:26;17.10;99.90
25825;DHT22;13658;44.534;18.694;2023-04-15T13:08:53;16.90;99.90
25825;DHT22;13658;44.534;18.694;2023-04-15T13:11:23;16.90;99.90
25825;DHT22;13658;44.534;18.694;2023-04-15T13:13:50;16.70;99.90
25825;DHT22;13658;44.534;18.694;2023-04-15T13:16:17;16.60;99.90
25825;DHT22;13658;44.534;18.694;2023-04-15T13:18:44;16.80;99.90
25825;DHT22;13658;44.534;18.694;2023-04-15T13:21:12;16.60;99.90
25825;DHT22;13658;44.534;18.694;2023-04-15T13:23:40;16.70;99.90
25825;DHT22;13658;44.534;18.694;2023-04-15T13:26:06;16.70;99.90
25825;DHT22;13658;44.534;18.694;2023-04-15T13:28:33;16.60;99.90
25825;DHT22;13658;44.534;18.694;2023-04-15T13:30:59;16.60;99.90
25825;DHT22;13658;44.534;18.694;2023-04-15T13:33:26;16.50;99.90
25825;DHT22;13658;44.534;18.694;2023-04-15T13:35:52;16.40;99.90
25825;DHT22;13658;44.534;18.694;2023-04-15T13:38:18;16.40;99.90
25825;DHT22;13658;44.534;18.694;2023-04-15T13:40:44;16.40;99.90
25825;DHT22;13658;44.534;18.694;2023-04-15T13:43:10;16.40;99.90
25825;DHT22;13658;44.534;18.694;2023-04-15T13:45:36;16.40;99.90
25825;DHT22;13658;44.534;18.694;2023-04-15T13:48:03;16.40;99.90
25825;DHT22;13658;44.534;18.694;2023-04-15T13:50:29;16.20;99.90
25825;DHT22;13658;44.534;18.694;2023-04-15T13:52:55;16.20;99.90
25825;DHT22;13658;44.534;18.694;2023-04-15T13:55:21;16.20;99.90
25825;DHT22;13658;44.534;18.694;2023-04-15T13:57:47;16.30;99.90
25825;DHT22;13658;44.534;18.694;2023-04-15T14:00:13;16.30;99.90
25825;DHT22;13658;44.534;18.694;2023-04-15T14:02:40;16.40;99.90
25825;DHT22;13658;44.534;18.694;2023-04-15T14:05:07;16.60;99.90
25825;DHT22;13658;44.534;18.694;2023-04-15T14:07:33;16.70;99.90
25825;DHT22;13658;44.534;18.694;2023-04-15T14:09:59;16.80;99.90
25825;DHT22;13658;44.534;18.694;2023-04-15T14:12:25;17.00;99.90
25825;DHT22;13658;44.534;18.694;2023-04-15T14:14:51;16.90;99.90
25825;DHT22;13658;44.534;18.694;2023-04-15T14:17:17;16.80;99.90
25825;DHT22;13658;44.534;18.694;2023-04-15T14:19:43;16.90;99.90
25825;DHT22;13658;44.534;18.694;2023-04-15T14:22:09;17.10;99.90
25825;DHT22;13658;44.534;18.694;2023-04-15T14:24:35;17.10;99.90
25825;DHT22;13658;44.534;18.694;2023-04-15T14:27:02;16.90;99.90
25825;DHT22;13658;44.534;18.694;2023-04-15T14:29:28;17.10;99.90
25825;DHT22;13658;44.534;18.694;2023-04-15T14:31:54;17.10;99.90
25825;DHT22;13658;44.534;18.694;2023-04-15T14:34:22;16.80;99.90
25825;DHT22;13658;44.534;18.694;2023-04-15T14:36:50;16.80;99.90
25825;DHT22;13658;44.534;18.694;2023-04-15T14:39:18;16.80;99.90
25825;DHT22;13658;44.534;18.694;2023-04-15T14:41:44;16.80;99.90
25825;DHT22;13658;44.534;18.694;2023-04-15T14:44:10;16.80;99.90
25825;DHT22;13658;44.534;18.694;2023-04-15T14:46:37;16.70;99.90
25825;DHT22;13658;44.534;18.694;2023-04-15T14:49:05;16.80;99.90
25825;DHT22;13658;44.534;18.694;2023-04-15T14:51:31;16.70;99.90
25825;DHT22;13658;44.534;18.694;2023-04-15T14:53:57;16.70;99.90
25825;DHT22;13658;44.534;18.694;2023-04-15T14:56:23;16.60;99.90
25825;DHT22;13658;44.534;18.694;2023-04-15T14:58:49;16.70;99.90
25825;DHT22;13658;44.534;18.694;2023-04-15T15:01:18;16.70;99.90
25825;DHT22;13658;44.534;18.694;2023-04-15T15:03:44;16.70;99.90
25825;DHT22;13658;44.534;18.694;2023-04-15T15:06:10;16.70;99.90
25825;DHT22;13658;44.534;18.694;2023-04-15T15:08:36;16.60;99.90
25825;DHT22;13658;44.534;18.694;2023-04-15T15:11:02;16.70;99.90
25825;DHT22;13658;44.534;18.694;2023-04-15T15:13:37;16.80;99.90
25825;DHT22;13658;44.534;18.694;2023-04-15T15:16:03;16.80;99.90
25825;DHT22;13658;44.534;18.694;2023-04-15T15:18:29;16.70;99.90
25825;DHT22;13658;44.534;18.694;2023-04-15T15:20:58;16.70;99.90
25825;DHT22;13658;44.534;18.694;2023-04-15T15:23:24;16.60;99.90
25825;DHT22;13658;44.534;18.694;2023-04-15T15:25:50;16.60;99.90
25825;DHT22;13658;44.534;18.694;2023-04-15T15:28:16;16.60;99.90
25825;DHT22;13658;44.534;18.694;2023-04-15T15:30:42;16.60;99.90
25825;DHT22;13658;44.534;18.694;2023-04-15T15:33:08;16.60;99.90
25825;DHT22;13658;44.534;18.694;2023-04-15T15:35:34;16.70;99.90
25825;DHT22;13658;44.534;18.694;2023-04-15T15:38:00;16.70;99.90
25825;DHT22;13658;44.534;18.694;2023-04-15T15:40:26;16.70;99.90
25825;DHT22;13658;44.534;18.694;2023-04-15T15:42:52;16.60;99.90
25825;DHT22;13658;44.534;18.694;2023-04-15T15:45:18;16.50;99.90
25825;DHT22;13658;44.534;18.694;2023-04-15T15:47:44;16.50;99.90
25825;DHT22;13658;44.534;18.694;2023-04-15T15:50:12;16.50;99.90
25825;DHT22;13658;44.534;18.694;2023-04-15T15:52:38;16.50;99.90
25825;DHT22;13658;44.534;18.694;2023-04-15T15:55:04;16.40;99.90